sensor_id;sensor_type;location;lat;lon;timestamp;P1;durP1;ratioP1;P2;durP2;ratioP2
66143;SDS011;52947;50.842;6.084;2023-10-19T00:01:57;0.95;;;0.95;;
66143;SDS011;52947;50.842;6.084;2023-10-19T00:04:26;1.67;;;1.00;;
66143;SDS011;52947;50.842;6.084;2023-10-19T00:06:58;1.00;;;0.90;;
66143;SDS011;52947;50.842;6.084;2023-10-19T00:09:26;1.52;;;0.90;;
66143;SDS011;52947;50.842;6.084;2023-10-19T00:11:58;0.77;;;0.77;;
66143;SDS011;52947;50.842;6.084;2023-10-19T00:14:26;1.13;;;0.90;;
66143;SDS011;52947;50.842;6.084;2023-10-19T00:16:53;1.20;;;1.02;;
66143;SDS011;52947;50.842;6.084;2023-10-19T00:19:28;1.38;;;1.20;;
66143;SDS011;52947;50.842;6.084;2023-10-19T00:21:55;5.53;;;1.23;;
66143;SDS011;52947;50.842;6.084;2023-10-19T00:24:28;2.17;;;1.00;;
66143;SDS011;52947;50.842;6.084;2023-10-19T00:26:58;1.23;;;0.95;;
66143;SDS011;52947;50.842;6.084;2023-10-19T00:29:32;1.63;;;0.90;;
66143;SDS011;52947;50.842;6.084;2023-10-19T00:31:59;1.10;;;1.00;;
66143;SDS011;52947;50.842;6.084;2023-10-19T00:34:31;3.08;;;1.10;;
66143;SDS011;52947;50.842;6.084;2023-10-19T00:37:00;2.67;;;1.00;;
66143;SDS011;52947;50.842;6.084;2023-10-19T00:39:34;2.45;;;1.00;;
66143;SDS011;52947;50.842;6.084;2023-10-19T00:42:10;2.15;;;0.70;;
66143;SDS011;52947;50.842;6.084;2023-10-19T00:44:42;3.05;;;1.02;;
66143;SDS011;52947;50.842;6.084;2023-10-19T00:47:09;1.23;;;0.77;;
66143;SDS011;52947;50.842;6.084;2023-10-19T00:49:41;4.78;;;1.08;;
66143;SDS011;52947;50.842;6.084;2023-10-19T00:52:10;2.05;;;0.70;;
66143;SDS011;52947;50.842;6.084;2023-10-19T00:54:39;3.73;;;1.37;;
66143;SDS011;52947;50.842;6.084;2023-10-19T00:57:17;2.07;;;0.80;;
66143;SDS011;52947;50.842;6.084;2023-10-19T00:59:49;1.95;;;0.77;;
66143;SDS011;52947;50.842;6.084;2023-10-19T01:02:20;1.70;;;0.80;;
66143;SDS011;52947;50.842;6.084;2023-10-19T01:04:58;6.53;;;1.40;;
66143;SDS011;52947;50.842;6.084;2023-10-19T01:07:28;2.53;;;1.73;;
66143;SDS011;52947;50.842;6.084;2023-10-19T01:09:57;1.35;;;0.90;;
66143;SDS011;52947;50.842;6.084;2023-10-19T01:12:26;3.22;;;1.08;;
66143;SDS011;52947;50.842;6.084;2023-10-19T01:15:05;1.52;;;0.77;;
66143;SDS011;52947;50.842;6.084;2023-10-19T01:17:36;6.20;;;0.80;;
66143;SDS011;52947;50.842;6.084;2023-10-19T01:20:10;4.45;;;1.00;;
66143;SDS011;52947;50.842;6.084;2023-10-19T01:25:34;5.68;;;0.98;;
66143;SDS011;52947;50.842;6.084;2023-10-19T01:28:12;4.03;;;0.93;;
66143;SDS011;52947;50.842;6.084;2023-10-19T01:30:44;2.63;;;0.68;;
66143;SDS011;52947;50.842;6.084;2023-10-19T01:35:42;4.75;;;1.05;;
66143;SDS011;52947;50.842;6.084;2023-10-19T01:38:29;2.00;;;0.80;;
66143;SDS011;52947;50.842;6.084;2023-10-19T01:40:58;1.23;;;0.70;;
66143;SDS011;52947;50.842;6.084;2023-10-19T01:43:26;2.25;;;0.80;;
66143;SDS011;52947;50.842;6.084;2023-10-19T01:45:57;3.17;;;0.90;;
66143;SDS011;52947;50.842;6.084;2023-10-19T01:48:25;4.20;;;0.80;;
66143;SDS011;52947;50.842;6.084;2023-10-19T01:51:02;3.63;;;0.90;;
66143;SDS011;52947;50.842;6.084;2023-10-19T01:53:33;1.73;;;0.70;;
66143;SDS011;52947;50.842;6.084;2023-10-19T01:56:02;3.70;;;0.90;;
66143;SDS011;52947;50.842;6.084;2023-10-19T01:58:32;1.08;;;0.70;;
66143;SDS011;52947;50.842;6.084;2023-10-19T02:01:03;0.90;;;0.60;;
66143;SDS011;52947;50.842;6.084;2023-10-19T02:03:35;2.10;;;0.70;;
66143;SDS011;52947;50.842;6.084;2023-10-19T02:06:08;3.00;;;1.05;;
66143;SDS011;52947;50.842;6.084;2023-10-19T02:08:48;1.05;;;0.70;;
66143;SDS011;52947;50.842;6.084;2023-10-19T02:11:21;3.88;;;0.95;;
66143;SDS011;52947;50.842;6.084;2023-10-19T02:13:49;3.40;;;0.90;;
66143;SDS011;52947;50.842;6.084;2023-10-19T02:16:18;3.80;;;0.80;;
66143;SDS011;52947;50.842;6.084;2023-10-19T02:18:49;3.80;;;0.80;;
66143;SDS011;52947;50.842;6.084;2023-10-19T02:21:18;4.55;;;0.90;;
66143;SDS011;52947;50.842;6.084;2023-10-19T02:23:50;3.30;;;0.80;;
66143;SDS011;52947;50.842;6.084;2023-10-19T02:26:18;3.17;;;0.85;;
66143;SDS011;52947;50.842;6.084;2023-10-19T02:28:46;3.53;;;1.33;;
66143;SDS011;52947;50.842;6.084;2023-10-19T02:31:17;1.98;;;0.60;;
66143;SDS011;52947;50.842;6.084;2023-10-19T02:33:47;2.78;;;0.93;;
66143;SDS011;52947;50.842;6.084;2023-10-19T02:36:18;2.80;;;0.90;;
66143;SDS011;52947;50.842;6.084;2023-10-19T02:38:46;1.85;;;0.80;;
66143;SDS011;52947;50.842;6.084;2023-10-19T02:41:18;2.63;;;0.90;;
66143;SDS011;52947;50.842;6.084;2023-10-19T02:43:47;4.05;;;0.82;;
66143;SDS011;52947;50.842;6.084;2023-10-19T02:46:18;1.80;;;0.80;;
66143;SDS011;52947;50.842;6.084;2023-10-19T02:51:18;3.75;;;0.90;;
66143;SDS011;52947;50.842;6.084;2023-10-19T02:53:45;5.10;;;1.00;;
66143;SDS011;52947;50.842;6.084;2023-10-19T02:56:14;3.85;;;1.13;;
66143;SDS011;52947;50.842;6.084;2023-10-19T02:58:46;4.38;;;1.50;;
66143;SDS011;52947;50.842;6.084;2023-10-19T03:01:16;3.53;;;1.30;;
66143;SDS011;52947;50.842;6.084;2023-10-19T03:03:50;3.22;;;1.10;;
66143;SDS011;52947;50.842;6.084;2023-10-19T03:06:18;2.05;;;0.88;;
66143;SDS011;52947;50.842;6.084;2023-10-19T03:08:47;3.10;;;0.95;;
66143;SDS011;52947;50.842;6.084;2023-10-19T03:11:18;4.38;;;0.90;;
66143;SDS011;52947;50.842;6.084;2023-10-19T03:13:48;5.50;;;0.90;;
66143;SDS011;52947;50.842;6.084;2023-10-19T03:16:17;4.72;;;1.02;;
66143;SDS011;52947;50.842;6.084;2023-10-19T03:18:46;5.95;;;1.20;;
66143;SDS011;52947;50.842;6.084;2023-10-19T03:21:13;4.22;;;1.10;;
66143;SDS011;52947;50.842;6.084;2023-10-19T03:23:42;6.32;;;1.00;;
66143;SDS011;52947;50.842;6.084;2023-10-19T03:26:09;5.13;;;1.13;;
66143;SDS011;52947;50.842;6.084;2023-10-19T03:28:58;4.40;;;0.98;;
66143;SDS011;52947;50.842;6.084;2023-10-19T03:31:29;3.45;;;0.90;;
66143;SDS011;52947;50.842;6.084;2023-10-19T03:33:59;5.03;;;1.10;;
66143;SDS011;52947;50.842;6.084;2023-10-19T03:36:31;6.97;;;1.15;;
66143;SDS011;52947;50.842;6.084;2023-10-19T03:39:00;2.88;;;0.82;;
66143;SDS011;52947;50.842;6.084;2023-10-19T03:41:40;4.07;;;1.00;;
66143;SDS011;52947;50.842;6.084;2023-10-19T03:44:12;3.97;;;1.08;;
66143;SDS011;52947;50.842;6.084;2023-10-19T03:46:45;3.88;;;0.93;;
66143;SDS011;52947;50.842;6.084;2023-10-19T03:51:57;4.50;;;0.98;;
66143;SDS011;52947;50.842;6.084;2023-10-19T03:54:30;0.93;;;0.70;;
66143;SDS011;52947;50.842;6.084;2023-10-19T03:59:34;7.75;;;1.73;;
66143;SDS011;52947;50.842;6.084;2023-10-19T04:02:02;5.45;;;1.45;;
66143;SDS011;52947;50.842;6.084;2023-10-19T04:04:36;7.65;;;1.20;;
66143;SDS011;52947;50.842;6.084;2023-10-19T04:07:06;2.58;;;0.90;;
66143;SDS011;52947;50.842;6.084;2023-10-19T04:09:43;2.65;;;0.80;;
66143;SDS011;52947;50.842;6.084;2023-10-19T04:12:24;3.50;;;1.08;;
66143;SDS011;52947;50.842;6.084;2023-10-19T04:14:53;5.53;;;1.27;;
66143;SDS011;52947;50.842;6.084;2023-10-19T04:17:22;2.17;;;0.95;;
66143;SDS011;52947;50.842;6.084;2023-10-19T04:19:50;3.50;;;0.85;;
66143;SDS011;52947;50.842;6.084;2023-10-19T04:22:19;3.45;;;0.80;;
66143;SDS011;52947;50.842;6.084;2023-10-19T04:24:50;4.03;;;1.20;;
66143;SDS011;52947;50.842;6.084;2023-10-19T04:27:18;3.78;;;0.90;;
66143;SDS011;52947;50.842;6.084;2023-10-19T04:29:49;6.03;;;0.90;;
66143;SDS011;52947;50.842;6.084;2023-10-19T04:32:19;2.28;;;0.88;;
66143;SDS011;52947;50.842;6.084;2023-10-19T04:34:52;3.25;;;0.70;;
66143;SDS011;52947;50.842;6.084;2023-10-19T04:37:20;4.18;;;1.00;;
66143;SDS011;52947;50.842;6.084;2023-10-19T04:39:50;2.38;;;0.82;;
66143;SDS011;52947;50.842;6.084;2023-10-19T04:42:18;3.72;;;0.95;;
66143;SDS011;52947;50.842;6.084;2023-10-19T04:44:49;1.83;;;0.90;;
66143;SDS011;52947;50.842;6.084;2023-10-19T04:47:17;1.98;;;1.08;;
66143;SDS011;52947;50.842;6.084;2023-10-19T04:49:46;1.90;;;0.98;;
66143;SDS011;52947;50.842;6.084;2023-10-19T04:52:15;2.53;;;1.00;;
66143;SDS011;52947;50.842;6.084;2023-10-19T04:54:43;4.28;;;1.00;;
66143;SDS011;52947;50.842;6.084;2023-10-19T04:57:11;4.75;;;0.95;;
66143;SDS011;52947;50.842;6.084;2023-10-19T04:59:39;4.45;;;0.90;;
66143;SDS011;52947;50.842;6.084;2023-10-19T05:02:11;2.85;;;1.00;;
66143;SDS011;52947;50.842;6.084;2023-10-19T05:04:40;2.30;;;1.07;;
66143;SDS011;52947;50.842;6.084;2023-10-19T05:07:09;3.92;;;1.55;;
66143;SDS011;52947;50.842;6.084;2023-10-19T05:09:41;6.10;;;1.55;;
66143;SDS011;52947;50.842;6.084;2023-10-19T05:12:09;4.53;;;1.05;;
66143;SDS011;52947;50.842;6.084;2023-10-19T05:14:38;3.05;;;1.00;;
66143;SDS011;52947;50.842;6.084;2023-10-19T05:17:07;3.38;;;1.00;;
66143;SDS011;52947;50.842;6.084;2023-10-19T05:19:36;4.55;;;1.30;;
66143;SDS011;52947;50.842;6.084;2023-10-19T05:22:06;4.05;;;0.85;;
66143;SDS011;52947;50.842;6.084;2023-10-19T05:24:36;5.82;;;1.15;;
66143;SDS011;52947;50.842;6.084;2023-10-19T05:29:35;4.65;;;1.40;;
66143;SDS011;52947;50.842;6.084;2023-10-19T05:32:03;2.85;;;1.05;;
66143;SDS011;52947;50.842;6.084;2023-10-19T05:34:32;4.97;;;1.30;;
66143;SDS011;52947;50.842;6.084;2023-10-19T05:37:02;3.38;;;1.15;;
66143;SDS011;52947;50.842;6.084;2023-10-19T05:39:32;4.38;;;1.50;;
66143;SDS011;52947;50.842;6.084;2023-10-19T05:42:01;4.05;;;1.08;;
66143;SDS011;52947;50.842;6.084;2023-10-19T05:44:31;1.98;;;1.27;;
66143;SDS011;52947;50.842;6.084;2023-10-19T05:46:59;3.58;;;1.05;;
66143;SDS011;52947;50.842;6.084;2023-10-19T05:51:56;3.13;;;1.00;;
66143;SDS011;52947;50.842;6.084;2023-10-19T05:54:25;3.47;;;1.00;;
66143;SDS011;52947;50.842;6.084;2023-10-19T05:56:53;3.33;;;1.08;;
66143;SDS011;52947;50.842;6.084;2023-10-19T05:59:23;3.97;;;1.20;;
66143;SDS011;52947;50.842;6.084;2023-10-19T06:01:53;6.57;;;1.23;;
66143;SDS011;52947;50.842;6.084;2023-10-19T06:04:21;5.10;;;1.48;;
66143;SDS011;52947;50.842;6.084;2023-10-19T06:07:06;4.03;;;1.13;;
66143;SDS011;52947;50.842;6.084;2023-10-19T06:09:35;4.43;;;1.25;;
66143;SDS011;52947;50.842;6.084;2023-10-19T06:12:03;6.88;;;1.60;;
66143;SDS011;52947;50.842;6.084;2023-10-19T06:14:32;4.82;;;1.20;;
66143;SDS011;52947;50.842;6.084;2023-10-19T06:17:00;4.30;;;1.45;;
66143;SDS011;52947;50.842;6.084;2023-10-19T06:19:28;7.13;;;1.30;;
66143;SDS011;52947;50.842;6.084;2023-10-19T06:21:57;6.75;;;1.13;;
66143;SDS011;52947;50.842;6.084;2023-10-19T06:24:26;5.07;;;1.38;;
66143;SDS011;52947;50.842;6.084;2023-10-19T06:26:54;6.15;;;1.27;;
66143;SDS011;52947;50.842;6.084;2023-10-19T06:29:22;5.68;;;1.45;;
66143;SDS011;52947;50.842;6.084;2023-10-19T06:31:55;2.72;;;1.20;;
66143;SDS011;52947;50.842;6.084;2023-10-19T06:34:23;6.63;;;1.75;;
66143;SDS011;52947;50.842;6.084;2023-10-19T06:36:51;7.50;;;1.65;;
66143;SDS011;52947;50.842;6.084;2023-10-19T06:39:20;5.88;;;1.60;;
66143;SDS011;52947;50.842;6.084;2023-10-19T06:41:48;5.05;;;1.60;;
66143;SDS011;52947;50.842;6.084;2023-10-19T06:44:16;3.93;;;1.20;;
66143;SDS011;52947;50.842;6.084;2023-10-19T06:46:44;8.73;;;2.08;;
66143;SDS011;52947;50.842;6.084;2023-10-19T06:49:14;5.13;;;1.23;;
66143;SDS011;52947;50.842;6.084;2023-10-19T06:51:44;11.52;;;1.17;;
66143;SDS011;52947;50.842;6.084;2023-10-19T06:54:30;7.15;;;1.48;;
66143;SDS011;52947;50.842;6.084;2023-10-19T06:56:59;5.22;;;1.30;;
66143;SDS011;52947;50.842;6.084;2023-10-19T06:59:29;6.97;;;1.63;;
66143;SDS011;52947;50.842;6.084;2023-10-19T07:01:59;7.53;;;2.00;;
66143;SDS011;52947;50.842;6.084;2023-10-19T07:04:30;4.93;;;1.10;;
66143;SDS011;52947;50.842;6.084;2023-10-19T07:06:58;6.45;;;1.55;;
66143;SDS011;52947;50.842;6.084;2023-10-19T07:09:27;6.63;;;1.73;;
66143;SDS011;52947;50.842;6.084;2023-10-19T07:11:55;7.78;;;1.88;;
66143;SDS011;52947;50.842;6.084;2023-10-19T07:14:23;9.02;;;1.63;;
66143;SDS011;52947;50.842;6.084;2023-10-19T07:16:51;7.55;;;1.77;;
66143;SDS011;52947;50.842;6.084;2023-10-19T07:19:19;4.55;;;1.20;;
66143;SDS011;52947;50.842;6.084;2023-10-19T07:21:49;4.40;;;1.48;;
66143;SDS011;52947;50.842;6.084;2023-10-19T07:24:24;5.57;;;1.33;;
66143;SDS011;52947;50.842;6.084;2023-10-19T07:26:52;5.78;;;1.45;;
66143;SDS011;52947;50.842;6.084;2023-10-19T07:29:30;6.13;;;1.40;;
66143;SDS011;52947;50.842;6.084;2023-10-19T07:32:00;10.90;;;1.70;;
66143;SDS011;52947;50.842;6.084;2023-10-19T07:34:30;8.35;;;2.22;;
66143;SDS011;52947;50.842;6.084;2023-10-19T07:37:01;5.65;;;1.40;;
66143;SDS011;52947;50.842;6.084;2023-10-19T07:39:30;5.80;;;1.40;;
66143;SDS011;52947;50.842;6.084;2023-10-19T07:42:00;4.97;;;1.60;;
66143;SDS011;52947;50.842;6.084;2023-10-19T07:44:31;4.78;;;1.65;;
66143;SDS011;52947;50.842;6.084;2023-10-19T07:46:59;6.88;;;1.15;;
66143;SDS011;52947;50.842;6.084;2023-10-19T07:49:27;6.20;;;1.60;;
66143;SDS011;52947;50.842;6.084;2023-10-19T07:51:55;5.70;;;1.50;;
66143;SDS011;52947;50.842;6.084;2023-10-19T07:54:26;3.30;;;1.38;;
66143;SDS011;52947;50.842;6.084;2023-10-19T07:56:54;10.25;;;1.80;;
66143;SDS011;52947;50.842;6.084;2023-10-19T07:59:24;6.28;;;1.60;;
66143;SDS011;52947;50.842;6.084;2023-10-19T08:01:52;7.85;;;1.95;;
66143;SDS011;52947;50.842;6.084;2023-10-19T08:04:20;6.97;;;1.80;;
66143;SDS011;52947;50.842;6.084;2023-10-19T08:06:48;9.18;;;1.88;;
66143;SDS011;52947;50.842;6.084;2023-10-19T08:09:16;8.82;;;1.70;;
66143;SDS011;52947;50.842;6.084;2023-10-19T08:11:50;7.80;;;1.98;;
66143;SDS011;52947;50.842;6.084;2023-10-19T08:14:22;8.48;;;1.80;;
66143;SDS011;52947;50.842;6.084;2023-10-19T08:16:51;4.95;;;1.60;;
66143;SDS011;52947;50.842;6.084;2023-10-19T08:19:19;6.53;;;1.65;;
66143;SDS011;52947;50.842;6.084;2023-10-19T08:21:48;11.10;;;1.70;;
66143;SDS011;52947;50.842;6.084;2023-10-19T08:24:16;6.50;;;2.33;;
66143;SDS011;52947;50.842;6.084;2023-10-19T08:29:14;7.03;;;2.50;;
66143;SDS011;52947;50.842;6.084;2023-10-19T08:31:43;7.10;;;2.15;;
66143;SDS011;52947;50.842;6.084;2023-10-19T08:34:12;9.35;;;2.13;;
66143;SDS011;52947;50.842;6.084;2023-10-19T08:36:40;6.78;;;2.05;;
66143;SDS011;52947;50.842;6.084;2023-10-19T08:39:09;7.80;;;2.20;;
66143;SDS011;52947;50.842;6.084;2023-10-19T08:41:39;4.93;;;1.92;;
66143;SDS011;52947;50.842;6.084;2023-10-19T08:44:08;7.68;;;1.90;;
66143;SDS011;52947;50.842;6.084;2023-10-19T08:46:40;8.55;;;1.88;;
66143;SDS011;52947;50.842;6.084;2023-10-19T08:49:10;6.40;;;1.83;;
66143;SDS011;52947;50.842;6.084;2023-10-19T08:51:39;7.95;;;1.80;;
66143;SDS011;52947;50.842;6.084;2023-10-19T08:54:09;8.50;;;2.00;;
66143;SDS011;52947;50.842;6.084;2023-10-19T08:56:38;7.30;;;2.22;;
66143;SDS011;52947;50.842;6.084;2023-10-19T09:01:37;4.32;;;1.42;;
66143;SDS011;52947;50.842;6.084;2023-10-19T09:04:07;8.13;;;1.92;;
66143;SDS011;52947;50.842;6.084;2023-10-19T09:06:35;7.57;;;1.70;;
66143;SDS011;52947;50.842;6.084;2023-10-19T09:09:08;7.10;;;1.83;;
66143;SDS011;52947;50.842;6.084;2023-10-19T09:11:43;7.38;;;1.98;;
66143;SDS011;52947;50.842;6.084;2023-10-19T09:14:11;8.20;;;2.10;;
66143;SDS011;52947;50.842;6.084;2023-10-19T09:16:52;5.78;;;1.98;;
66143;SDS011;52947;50.842;6.084;2023-10-19T09:19:35;8.25;;;2.53;;
66143;SDS011;52947;50.842;6.084;2023-10-19T09:22:05;4.75;;;1.58;;
66143;SDS011;52947;50.842;6.084;2023-10-19T09:24:43;6.60;;;2.00;;
66143;SDS011;52947;50.842;6.084;2023-10-19T09:27:12;13.65;;;2.35;;
66143;SDS011;52947;50.842;6.084;2023-10-19T09:29:44;9.02;;;2.15;;
66143;SDS011;52947;50.842;6.084;2023-10-19T09:32:12;10.60;;;1.73;;
66143;SDS011;52947;50.842;6.084;2023-10-19T09:34:44;6.25;;;1.70;;
66143;SDS011;52947;50.842;6.084;2023-10-19T09:37:14;9.88;;;1.90;;
66143;SDS011;52947;50.842;6.084;2023-10-19T09:39:44;6.93;;;1.85;;
66143;SDS011;52947;50.842;6.084;2023-10-19T09:42:12;3.60;;;1.50;;
66143;SDS011;52947;50.842;6.084;2023-10-19T09:44:44;5.95;;;1.70;;
66143;SDS011;52947;50.842;6.084;2023-10-19T09:47:17;7.15;;;1.88;;
66143;SDS011;52947;50.842;6.084;2023-10-19T09:49:52;8.85;;;2.35;;
66143;SDS011;52947;50.842;6.084;2023-10-19T09:52:21;7.18;;;1.42;;
66143;SDS011;52947;50.842;6.084;2023-10-19T09:54:50;8.52;;;2.05;;
66143;SDS011;52947;50.842;6.084;2023-10-19T09:57:26;8.13;;;2.03;;
66143;SDS011;52947;50.842;6.084;2023-10-19T09:59:59;9.85;;;2.13;;
66143;SDS011;52947;50.842;6.084;2023-10-19T10:02:38;6.47;;;1.70;;
66143;SDS011;52947;50.842;6.084;2023-10-19T10:11:12;7.05;;;1.50;;
66143;SDS011;52947;50.842;6.084;2023-10-19T10:13:45;6.93;;;1.40;;
66143;SDS011;52947;50.842;6.084;2023-10-19T10:16:18;8.85;;;2.20;;
66143;SDS011;52947;50.842;6.084;2023-10-19T10:18:47;5.30;;;1.50;;
66143;SDS011;52947;50.842;6.084;2023-10-19T10:21:17;8.65;;;2.15;;
66143;SDS011;52947;50.842;6.084;2023-10-19T10:23:50;9.85;;;1.65;;
66143;SDS011;52947;50.842;6.084;2023-10-19T10:26:20;9.57;;;2.00;;
66143;SDS011;52947;50.842;6.084;2023-10-19T10:29:08;6.78;;;1.73;;
66143;SDS011;52947;50.842;6.084;2023-10-19T10:31:41;6.28;;;1.70;;
66143;SDS011;52947;50.842;6.084;2023-10-19T10:34:11;5.05;;;1.88;;
66143;SDS011;52947;50.842;6.084;2023-10-19T10:37:01;8.10;;;1.60;;
66143;SDS011;52947;50.842;6.084;2023-10-19T10:39:31;10.02;;;2.13;;
66143;SDS011;52947;50.842;6.084;2023-10-19T10:42:01;7.13;;;2.00;;
66143;SDS011;52947;50.842;6.084;2023-10-19T10:44:37;7.35;;;1.95;;
66143;SDS011;52947;50.842;6.084;2023-10-19T10:47:07;3.85;;;1.63;;
66143;SDS011;52947;50.842;6.084;2023-10-19T10:49:49;10.48;;;2.03;;
66143;SDS011;52947;50.842;6.084;2023-10-19T10:52:24;7.93;;;1.70;;
66143;SDS011;52947;50.842;6.084;2023-10-19T10:54:55;6.90;;;1.55;;
66143;SDS011;52947;50.842;6.084;2023-10-19T10:57:29;6.30;;;1.63;;
66143;SDS011;52947;50.842;6.084;2023-10-19T11:00:02;7.45;;;2.10;;
66143;SDS011;52947;50.842;6.084;2023-10-19T11:02:34;6.65;;;1.63;;
66143;SDS011;52947;50.842;6.084;2023-10-19T11:05:03;8.38;;;1.75;;
66143;SDS011;52947;50.842;6.084;2023-10-19T11:10:01;4.40;;;1.40;;
66143;SDS011;52947;50.842;6.084;2023-10-19T11:12:29;8.20;;;1.98;;
66143;SDS011;52947;50.842;6.084;2023-10-19T11:14:58;9.30;;;1.83;;
66143;SDS011;52947;50.842;6.084;2023-10-19T11:17:28;5.88;;;1.60;;
66143;SDS011;52947;50.842;6.084;2023-10-19T11:19:58;5.40;;;1.83;;
66143;SDS011;52947;50.842;6.084;2023-10-19T11:22:27;5.90;;;1.38;;
66143;SDS011;52947;50.842;6.084;2023-10-19T11:24:55;7.15;;;1.33;;
66143;SDS011;52947;50.842;6.084;2023-10-19T11:27:25;10.37;;;2.47;;
66143;SDS011;52947;50.842;6.084;2023-10-19T11:29:57;11.55;;;2.08;;
66143;SDS011;52947;50.842;6.084;2023-10-19T11:32:25;5.55;;;1.40;;
66143;SDS011;52947;50.842;6.084;2023-10-19T11:34:53;6.32;;;1.70;;
66143;SDS011;52947;50.842;6.084;2023-10-19T11:37:23;7.30;;;2.00;;
66143;SDS011;52947;50.842;6.084;2023-10-19T11:39:51;5.82;;;1.67;;
66143;SDS011;52947;50.842;6.084;2023-10-19T11:42:19;17.83;;;2.40;;
66143;SDS011;52947;50.842;6.084;2023-10-19T11:44:48;7.88;;;1.83;;
66143;SDS011;52947;50.842;6.084;2023-10-19T11:47:16;12.60;;;2.08;;
66143;SDS011;52947;50.842;6.084;2023-10-19T11:49:44;7.80;;;1.80;;
66143;SDS011;52947;50.842;6.084;2023-10-19T11:52:12;9.35;;;1.98;;
66143;SDS011;52947;50.842;6.084;2023-10-19T11:54:40;5.85;;;1.83;;
66143;SDS011;52947;50.842;6.084;2023-10-19T11:57:08;8.13;;;1.58;;
66143;SDS011;52947;50.842;6.084;2023-10-19T11:59:36;6.65;;;1.60;;
66143;SDS011;52947;50.842;6.084;2023-10-19T12:02:06;9.50;;;2.28;;
66143;SDS011;52947;50.842;6.084;2023-10-19T12:04:36;8.27;;;1.58;;
66143;SDS011;52947;50.842;6.084;2023-10-19T12:07:04;7.37;;;1.97;;
66143;SDS011;52947;50.842;6.084;2023-10-19T12:09:32;7.53;;;2.20;;
66143;SDS011;52947;50.842;6.084;2023-10-19T12:12:00;10.55;;;2.17;;
66143;SDS011;52947;50.842;6.084;2023-10-19T12:14:32;8.98;;;1.80;;
66143;SDS011;52947;50.842;6.084;2023-10-19T12:17:00;6.85;;;1.70;;
66143;SDS011;52947;50.842;6.084;2023-10-19T12:19:30;8.25;;;1.63;;
66143;SDS011;52947;50.842;6.084;2023-10-19T12:21:59;5.70;;;1.48;;
66143;SDS011;52947;50.842;6.084;2023-10-19T12:24:27;5.65;;;1.73;;
66143;SDS011;52947;50.842;6.084;2023-10-19T12:26:56;7.18;;;1.50;;
66143;SDS011;52947;50.842;6.084;2023-10-19T12:29:24;9.15;;;1.58;;
66143;SDS011;52947;50.842;6.084;2023-10-19T12:32:10;6.55;;;1.38;;
66143;SDS011;52947;50.842;6.084;2023-10-19T12:37:10;5.88;;;1.80;;
66143;SDS011;52947;50.842;6.084;2023-10-19T12:39:39;4.32;;;1.40;;
66143;SDS011;52947;50.842;6.084;2023-10-19T12:42:11;10.35;;;1.38;;
66143;SDS011;52947;50.842;6.084;2023-10-19T12:44:40;6.60;;;1.40;;
66143;SDS011;52947;50.842;6.084;2023-10-19T12:47:13;5.35;;;1.50;;
66143;SDS011;52947;50.842;6.084;2023-10-19T12:49:44;5.53;;;1.20;;
66143;SDS011;52947;50.842;6.084;2023-10-19T12:52:13;3.03;;;1.40;;
66143;SDS011;52947;50.842;6.084;2023-10-19T12:54:41;4.82;;;1.30;;
66143;SDS011;52947;50.842;6.084;2023-10-19T12:57:12;4.22;;;1.65;;
66143;SDS011;52947;50.842;6.084;2023-10-19T12:59:40;5.32;;;1.60;;
66143;SDS011;52947;50.842;6.084;2023-10-19T13:02:10;5.95;;;1.63;;
66143;SDS011;52947;50.842;6.084;2023-10-19T13:04:42;4.25;;;1.70;;
66143;SDS011;52947;50.842;6.084;2023-10-19T13:07:13;5.35;;;1.58;;
66143;SDS011;52947;50.842;6.084;2023-10-19T13:09:41;5.85;;;1.65;;
66143;SDS011;52947;50.842;6.084;2023-10-19T13:12:11;6.45;;;1.63;;
66143;SDS011;52947;50.842;6.084;2023-10-19T13:14:39;6.50;;;1.30;;
66143;SDS011;52947;50.842;6.084;2023-10-19T13:17:10;7.45;;;2.15;;
66143;SDS011;52947;50.842;6.084;2023-10-19T13:19:38;7.60;;;2.00;;
66143;SDS011;52947;50.842;6.084;2023-10-19T13:22:08;4.07;;;1.58;;
66143;SDS011;52947;50.842;6.084;2023-10-19T13:24:36;3.95;;;1.52;;
66143;SDS011;52947;50.842;6.084;2023-10-19T13:27:08;4.75;;;1.40;;
66143;SDS011;52947;50.842;6.084;2023-10-19T13:29:37;5.82;;;1.73;;
66143;SDS011;52947;50.842;6.084;2023-10-19T13:32:08;5.25;;;1.55;;
66143;SDS011;52947;50.842;6.084;2023-10-19T13:34:36;8.55;;;1.80;;
66143;SDS011;52947;50.842;6.084;2023-10-19T13:37:08;4.13;;;1.35;;
66143;SDS011;52947;50.842;6.084;2023-10-19T13:39:37;3.95;;;1.52;;
66143;SDS011;52947;50.842;6.084;2023-10-19T13:44:35;7.10;;;1.73;;
66143;SDS011;52947;50.842;6.084;2023-10-19T13:47:03;6.03;;;1.70;;
66143;SDS011;52947;50.842;6.084;2023-10-19T13:49:31;5.07;;;1.60;;
66143;SDS011;52947;50.842;6.084;2023-10-19T13:51:59;4.47;;;1.55;;
66143;SDS011;52947;50.842;6.084;2023-10-19T13:54:32;6.60;;;1.80;;
66143;SDS011;52947;50.842;6.084;2023-10-19T13:57:00;5.50;;;1.63;;
66143;SDS011;52947;50.842;6.084;2023-10-19T13:59:28;7.57;;;2.63;;
66143;SDS011;52947;50.842;6.084;2023-10-19T14:01:56;4.28;;;1.70;;
66143;SDS011;52947;50.842;6.084;2023-10-19T14:04:26;7.00;;;1.90;;
66143;SDS011;52947;50.842;6.084;2023-10-19T14:06:53;7.07;;;2.40;;
66143;SDS011;52947;50.842;6.084;2023-10-19T14:09:21;6.25;;;2.53;;
66143;SDS011;52947;50.842;6.084;2023-10-19T14:11:54;9.00;;;2.75;;
66143;SDS011;52947;50.842;6.084;2023-10-19T14:14:22;4.63;;;2.45;;
66143;SDS011;52947;50.842;6.084;2023-10-19T14:16:50;6.45;;;1.90;;
66143;SDS011;52947;50.842;6.084;2023-10-19T14:19:18;5.15;;;1.92;;
66143;SDS011;52947;50.842;6.084;2023-10-19T14:21:46;4.35;;;1.67;;
66143;SDS011;52947;50.842;6.084;2023-10-19T14:24:14;9.00;;;2.07;;
66143;SDS011;52947;50.842;6.084;2023-10-19T14:26:44;4.93;;;1.90;;
66143;SDS011;52947;50.842;6.084;2023-10-19T14:34:10;7.30;;;2.38;;
66143;SDS011;52947;50.842;6.084;2023-10-19T14:36:38;5.00;;;2.15;;
66143;SDS011;52947;50.842;6.084;2023-10-19T14:39:06;7.70;;;2.05;;
66143;SDS011;52947;50.842;6.084;2023-10-19T14:41:36;5.55;;;2.20;;
66143;SDS011;52947;50.842;6.084;2023-10-19T14:44:05;5.43;;;2.15;;
66143;SDS011;52947;50.842;6.084;2023-10-19T14:49:03;4.45;;;1.90;;
66143;SDS011;52947;50.842;6.084;2023-10-19T14:51:32;6.30;;;2.35;;
66143;SDS011;52947;50.842;6.084;2023-10-19T14:54:00;7.38;;;2.30;;
66143;SDS011;52947;50.842;6.084;2023-10-19T14:56:29;4.40;;;1.88;;
66143;SDS011;52947;50.842;6.084;2023-10-19T14:58:57;4.03;;;1.83;;
66143;SDS011;52947;50.842;6.084;2023-10-19T15:01:25;8.48;;;2.20;;
66143;SDS011;52947;50.842;6.084;2023-10-19T15:03:55;4.50;;;2.05;;
66143;SDS011;52947;50.842;6.084;2023-10-19T15:06:23;5.63;;;2.22;;
66143;SDS011;52947;50.842;6.084;2023-10-19T15:08:51;7.07;;;2.20;;
66143;SDS011;52947;50.842;6.084;2023-10-19T15:11:19;6.40;;;2.00;;
66143;SDS011;52947;50.842;6.084;2023-10-19T15:13:48;4.53;;;2.13;;
66143;SDS011;52947;50.842;6.084;2023-10-19T15:16:17;5.15;;;2.03;;
66143;SDS011;52947;50.842;6.084;2023-10-19T15:18:45;5.38;;;2.10;;
66143;SDS011;52947;50.842;6.084;2023-10-19T15:21:14;5.05;;;2.10;;
66143;SDS011;52947;50.842;6.084;2023-10-19T15:23:43;4.05;;;1.80;;
66143;SDS011;52947;50.842;6.084;2023-10-19T15:26:16;5.60;;;2.00;;
66143;SDS011;52947;50.842;6.084;2023-10-19T15:28:44;4.97;;;1.90;;
66143;SDS011;52947;50.842;6.084;2023-10-19T15:31:13;2.95;;;1.67;;
66143;SDS011;52947;50.842;6.084;2023-10-19T15:33:41;6.27;;;2.37;;
66143;SDS011;52947;50.842;6.084;2023-10-19T15:36:11;3.13;;;1.97;;
66143;SDS011;52947;50.842;6.084;2023-10-19T15:38:40;7.07;;;2.00;;
66143;SDS011;52947;50.842;6.084;2023-10-19T15:41:09;5.32;;;2.13;;
66143;SDS011;52947;50.842;6.084;2023-10-19T15:43:38;4.75;;;2.00;;
66143;SDS011;52947;50.842;6.084;2023-10-19T15:46:06;4.28;;;2.13;;
66143;SDS011;52947;50.842;6.084;2023-10-19T15:48:39;4.88;;;2.22;;
66143;SDS011;52947;50.842;6.084;2023-10-19T15:51:07;5.53;;;1.95;;